Time;durP1;ratioP1;P1;durP2;ratioP2;P2;SDS_P1;SDS_P2;PMS_P1;PMS_P2;Temp;Humidity;BMP_temperature;BMP_pressure;BME280_temperature;BME280_humidity;BME280_pressure;Samples;Min_cycle;Max_cycle;Signal;HPM_P1;HPM_P2
2024/01/16 00:00:31;;;;;;;8.38;4.18;;;;;;;;;;5012261;28;20400;-75
2024/01/16 00:02:57;;;;;;;13.43;4.75;;;;;;;;;;5031353;28;20049;-75
2024/01/16 00:05:22;;;;;;;10.13;3.95;;;;;;;;;;5032724;28;20844;-75
2024/01/16 00:07:47;;;;;;;11.30;4.70;;;;;;;;;;5009809;28;20073;-74
2024/01/16 00:10:13;;;;;;;8.15;3.67;;;;;;;;;;5012502;28;20061;-75
2024/01/16 00:12:40;;;;;;;9.00;3.72;;;;;;;;;;5032196;28;20041;-75
2024/01/16 00:15:06;;;;;;;13.27;4.35;;;;;;;;;;5033832;28;20029;-75
2024/01/16 00:17:31;;;;;;;12.85;4.53;;;;;;;;;;5039552;28;20064;-75
2024/01/16 00:20:00;;;;;;;9.40;4.18;;;;;;;;;;5041490;28;20033;-75
2024/01/16 00:22:29;;;;;;;8.43;3.72;;;;;;;;;;5034114;28;20503;-75
2024/01/16 00:24:54;;;;;;;9.18;3.83;;;;;;;;;;5007608;28;20034;-75
2024/01/16 00:27:20;;;;;;;9.73;4.43;;;;;;;;;;5008185;28;20033;-74
2024/01/16 00:29:45;;;;;;;9.68;4.55;;;;;;;;;;5031381;28;20021;-75
2024/01/16 00:32:10;;;;;;;10.65;3.90;;;;;;;;;;5031587;28;20037;-75
2024/01/16 00:34:36;;;;;;;10.18;3.70;;;;;;;;;;5013141;28;20077;-74
2024/01/16 00:37:01;;;;;;;11.90;3.95;;;;;;;;;;5009886;28;20036;-75
2024/01/16 00:39:26;;;;;;;9.85;3.95;;;;;;;;;;5010320;28;20033;-74
2024/01/16 00:41:52;;;;;;;6.60;3.25;;;;;;;;;;5010612;28;20066;-75
2024/01/16 00:44:17;;;;;;;6.68;3.80;;;;;;;;;;5030663;28;20021;-75
2024/01/16 00:46:43;;;;;;;11.27;4.40;;;;;;;;;;5027521;28;20041;-75
2024/01/16 00:49:09;;;;;;;11.88;4.35;;;;;;;;;;5012133;28;20068;-75
2024/01/16 00:51:34;;;;;;;9.82;3.55;;;;;;;;;;5030844;28;20041;-75
2024/01/16 00:54:00;;;;;;;7.97;4.00;;;;;;;;;;5011079;28;20032;-75
2024/01/16 00:56:27;;;;;;;13.75;4.38;;;;;;;;;;5012882;28;20021;-77
2024/01/16 00:58:53;;;;;;;9.27;4.13;;;;;;;;;;5030877;28;20076;-74
2024/01/16 01:01:19;;;;;;;9.30;4.25;;;;;;;;;;5012517;28;20072;-74
2024/01/16 01:03:45;;;;;;;10.32;3.72;;;;;;;;;;5019001;28;20069;-75
2024/01/16 01:06:11;;;;;;;10.45;4.10;;;;;;;;;;5010612;28;20042;-75
2024/01/16 01:08:37;;;;;;;8.88;3.83;;;;;;;;;;5005843;28;20081;-74
2024/01/16 01:11:02;;;;;;;7.90;3.47;;;;;;;;;;4989765;28;20038;-74
2024/01/16 01:13:28;;;;;;;11.43;3.10;;;;;;;;;;4990458;28;20050;-74
2024/01/16 01:15:54;;;;;;;7.57;3.35;;;;;;;;;;4972220;28;20035;-74
2024/01/16 01:18:19;;;;;;;9.48;3.90;;;;;;;;;;4987347;28;20030;-74
2024/01/16 01:20:45;;;;;;;11.48;3.88;;;;;;;;;;5008070;28;20014;-74
2024/01/16 01:23:10;;;;;;;8.85;3.90;;;;;;;;;;5005558;28;20046;-75
2024/01/16 01:25:36;;;;;;;7.80;3.97;;;;;;;;;;5007703;28;20090;-74
2024/01/16 01:28:01;;;;;;;11.55;3.58;;;;;;;;;;4988938;28;20647;-74
2024/01/16 01:30:26;;;;;;;7.88;2.78;;;;;;;;;;4986632;28;20046;-74
2024/01/16 01:32:52;;;;;;;10.80;4.35;;;;;;;;;;4978286;28;20034;-75
2024/01/16 01:35:19;;;;;;;7.30;3.25;;;;;;;;;;4975950;28;20026;-75
2024/01/16 01:37:45;;;;;;;7.10;3.13;;;;;;;;;;5007607;28;20662;-75
2024/01/16 01:40:12;;;;;;;8.20;4.30;;;;;;;;;;4999004;28;20520;-75
2024/01/16 01:42:37;;;;;;;8.45;3.60;;;;;;;;;;4972524;28;20113;-75
2024/01/16 01:45:03;;;;;;;7.30;3.35;;;;;;;;;;4972896;28;20129;-74
2024/01/16 01:47:30;;;;;;;9.40;3.80;;;;;;;;;;4985295;28;20543;-74
2024/01/16 01:49:55;;;;;;;7.78;3.17;;;;;;;;;;4989697;28;20760;-74
2024/01/16 01:52:21;;;;;;;9.13;3.33;;;;;;;;;;4972072;28;20141;-74
2024/01/16 01:54:47;;;;;;;8.57;3.78;;;;;;;;;;4989291;28;20420;-74
2024/01/16 01:57:13;;;;;;;9.07;3.75;;;;;;;;;;4990245;28;20465;-74
2024/01/16 01:59:38;;;;;;;11.63;3.80;;;;;;;;;;4990154;28;20023;-74
2024/01/16 02:02:04;;;;;;;9.93;3.40;;;;;;;;;;4989622;28;20042;-75
2024/01/16 02:04:31;;;;;;;8.02;3.00;;;;;;;;;;4972727;28;20463;-75
2024/01/16 02:06:57;;;;;;;9.23;3.60;;;;;;;;;;4989492;28;20042;-75
2024/01/16 02:09:23;;;;;;;11.40;3.53;;;;;;;;;;4986109;28;20045;-75
2024/01/16 02:11:48;;;;;;;7.60;3.47;;;;;;;;;;5009802;28;20033;-75
2024/01/16 02:14:14;;;;;;;10.25;3.38;;;;;;;;;;4990846;28;20057;-75
2024/01/16 02:16:44;;;;;;;8.18;3.42;;;;;;;;;;5008720;28;20644;-75
2024/01/16 02:19:10;;;;;;;7.80;3.47;;;;;;;;;;4991821;28;20046;-74
2024/01/16 02:21:48;;;;;;;8.82;3.53;;;;;;;;;;5008925;28;20032;-75
2024/01/16 02:24:14;;;;;;;7.22;3.20;;;;;;;;;;4990559;28;20683;-75
2024/01/16 02:26:40;;;;;;;8.00;3.10;;;;;;;;;;4983208;28;20033;-74
2024/01/16 02:29:06;;;;;;;10.27;3.80;;;;;;;;;;4971326;28;20042;-74
2024/01/16 02:31:32;;;;;;;10.05;3.58;;;;;;;;;;4989028;28;20038;-75
2024/01/16 02:33:58;;;;;;;11.38;3.47;;;;;;;;;;4971645;28;20495;-75
2024/01/16 02:36:24;;;;;;;8.07;3.42;;;;;;;;;;4988540;28;20032;-75
2024/01/16 02:38:49;;;;;;;7.75;3.58;;;;;;;;;;4988662;28;20026;-75
2024/01/16 02:41:18;;;;;;;9.50;3.33;;;;;;;;;;5008094;28;20136;-75
2024/01/16 02:43:44;;;;;;;7.15;3.28;;;;;;;;;;4990560;28;20048;-75
2024/01/16 02:46:10;;;;;;;6.68;4.07;;;;;;;;;;4990554;28;20041;-75
2024/01/16 02:48:36;;;;;;;8.05;3.53;;;;;;;;;;5024501;28;20109;-74
2024/01/16 02:51:03;;;;;;;9.88;3.58;;;;;;;;;;5027880;28;20028;-75
2024/01/16 02:53:28;;;;;;;10.48;3.55;;;;;;;;;;5023232;28;20037;-75
2024/01/16 02:55:54;;;;;;;7.20;3.38;;;;;;;;;;4993403;28;20049;-75
2024/01/16 02:58:21;;;;;;;7.95;3.83;;;;;;;;;;4990030;28;20037;-75
2024/01/16 03:00:46;;;;;;;10.20;3.22;;;;;;;;;;4994099;28;20034;-75
2024/01/16 03:03:12;;;;;;;6.45;3.05;;;;;;;;;;5002792;28;20041;-75
2024/01/16 03:05:37;;;;;;;8.23;3.53;;;;;;;;;;5011280;28;20273;-75
2024/01/16 03:08:03;;;;;;;10.65;3.95;;;;;;;;;;5010072;28;20041;-76
2024/01/16 03:10:28;;;;;;;12.30;4.00;;;;;;;;;;5025251;28;20136;-76
2024/01/16 03:12:54;;;;;;;5.55;2.88;;;;;;;;;;5010327;28;20446;-75
2024/01/16 03:15:20;;;;;;;12.10;3.70;;;;;;;;;;5026894;28;20542;-75
2024/01/16 03:17:45;;;;;;;15.82;3.83;;;;;;;;;;5010571;28;20040;-75
2024/01/16 03:20:11;;;;;;;7.25;3.53;;;;;;;;;;5028391;28;20027;-75
2024/01/16 03:22:37;;;;;;;8.13;3.22;;;;;;;;;;5009891;28;20037;-75
2024/01/16 03:25:02;;;;;;;11.77;3.75;;;;;;;;;;4999196;28;20727;-76
2024/01/16 03:27:28;;;;;;;8.50;3.83;;;;;;;;;;5024458;28;20025;-75
2024/01/16 03:29:53;;;;;;;7.80;3.30;;;;;;;;;;5047716;28;20052;-75
2024/01/16 03:32:18;;;;;;;7.72;2.78;;;;;;;;;;5030167;28;20449;-75
2024/01/16 03:34:44;;;;;;;10.20;3.30;;;;;;;;;;5047878;28;20033;-75
2024/01/16 03:37:09;;;;;;;7.40;3.90;;;;;;;;;;5025506;28;20041;-75
2024/01/16 03:39:35;;;;;;;14.10;3.67;;;;;;;;;;5016891;28;20022;-75
2024/01/16 03:42:00;;;;;;;8.77;3.45;;;;;;;;;;4998320;28;20514;-75
2024/01/16 03:44:26;;;;;;;11.52;3.95;;;;;;;;;;5010270;28;20048;-75
2024/01/16 03:46:51;;;;;;;8.43;3.85;;;;;;;;;;5009409;28;20029;-75
2024/01/16 03:49:16;;;;;;;7.75;3.85;;;;;;;;;;5002852;28;20038;-75
2024/01/16 03:51:46;;;;;;;6.75;3.47;;;;;;;;;;5016055;28;20041;-75
2024/01/16 03:54:12;;;;;;;9.13;3.70;;;;;;;;;;5006759;28;20636;-75
2024/01/16 03:56:37;;;;;;;11.48;3.22;;;;;;;;;;5028203;28;20825;-75
2024/01/16 03:59:03;;;;;;;13.70;4.20;;;;;;;;;;5030814;28;20557;-75
2024/01/16 04:01:36;;;;;;;9.35;3.47;;;;;;;;;;5030215;28;20029;-75
2024/01/16 04:04:02;;;;;;;6.85;3.72;;;;;;;;;;5012992;28;20083;-75
2024/01/16 04:06:29;;;;;;;7.47;3.60;;;;;;;;;;5013523;28;20034;-75
2024/01/16 04:08:55;;;;;;;7.25;3.53;;;;;;;;;;5007778;28;20026;-75
2024/01/16 04:11:20;;;;;;;7.45;3.30;;;;;;;;;;5012158;28;20029;-75
2024/01/16 04:13:45;;;;;;;6.72;3.03;;;;;;;;;;5009167;28;20033;-74
2024/01/16 04:16:12;;;;;;;10.27;3.75;;;;;;;;;;4998689;28;20037;-75
2024/01/16 04:18:39;;;;;;;15.30;4.05;;;;;;;;;;5017500;28;20094;-75
2024/01/16 04:21:05;;;;;;;9.63;3.60;;;;;;;;;;4994730;28;20026;-74
2024/01/16 04:23:31;;;;;;;9.05;3.30;;;;;;;;;;5009632;28;20025;-75
2024/01/16 04:25:57;;;;;;;11.75;3.97;;;;;;;;;;5021949;28;20458;-75
2024/01/16 04:28:22;;;;;;;7.40;2.83;;;;;;;;;;5010913;28;20052;-74
2024/01/16 04:30:47;;;;;;;10.45;3.50;;;;;;;;;;4992766;28;20117;-74
2024/01/16 04:33:13;;;;;;;18.15;4.55;;;;;;;;;;5010364;28;20034;-74
2024/01/16 04:35:38;;;;;;;12.00;3.42;;;;;;;;;;4993225;28;20034;-74
2024/01/16 04:38:04;;;;;;;11.73;3.55;;;;;;;;;;5021352;28;20593;-75
2024/01/16 04:40:29;;;;;;;9.48;3.00;;;;;;;;;;5023623;28;20033;-75
2024/01/16 04:42:54;;;;;;;8.18;3.47;;;;;;;;;;5030091;28;20473;-75
2024/01/16 04:45:20;;;;;;;7.50;3.20;;;;;;;;;;5012966;28;20033;-75
2024/01/16 04:47:45;;;;;;;12.00;3.67;;;;;;;;;;5029747;28;20017;-74
2024/01/16 04:50:11;;;;;;;20.55;3.70;;;;;;;;;;5040518;28;20086;-74
2024/01/16 04:52:37;;;;;;;10.38;3.38;;;;;;;;;;5048813;28;20059;-75
2024/01/16 04:55:03;;;;;;;7.18;3.33;;;;;;;;;;5048487;28;20087;-74
2024/01/16 04:57:28;;;;;;;8.60;3.20;;;;;;;;;;5028500;28;20041;-75
2024/01/16 04:59:53;;;;;;;6.38;3.20;;;;;;;;;;5046655;28;20044;-75
2024/01/16 05:02:19;;;;;;;7.82;3.20;;;;;;;;;;5022253;28;20099;-74
2024/01/16 05:04:45;;;;;;;7.97;3.42;;;;;;;;;;5029425;28;20087;-75
2024/01/16 05:07:10;;;;;;;5.95;3.17;;;;;;;;;;5012409;28;20052;-75
2024/01/16 05:09:36;;;;;;;13.23;3.67;;;;;;;;;;5024480;28;20038;-74
2024/01/16 05:12:01;;;;;;;8.23;3.78;;;;;;;;;;5011766;28;20029;-75
2024/01/16 05:14:26;;;;;;;5.00;2.67;;;;;;;;;;5030120;28;20025;-75
2024/01/16 05:16:52;;;;;;;5.60;2.88;;;;;;;;;;5029617;28;20041;-75
2024/01/16 05:19:18;;;;;;;10.57;3.10;;;;;;;;;;5029230;28;20546;-74
2024/01/16 05:21:43;;;;;;;7.57;2.83;;;;;;;;;;5029123;28;20033;-74
2024/01/16 05:24:09;;;;;;;9.15;3.45;;;;;;;;;;5006815;28;20108;-74
2024/01/16 05:26:35;;;;;;;6.82;3.03;;;;;;;;;;5017172;28;20040;-75
2024/01/16 05:29:00;;;;;;;9.85;3.90;;;;;;;;;;5011745;28;20037;-74
2024/01/16 05:31:25;;;;;;;8.65;3.80;;;;;;;;;;5029314;28;20447;-75
2024/01/16 05:33:51;;;;;;;10.50;3.15;;;;;;;;;;5029352;28;20087;-75
2024/01/16 05:36:16;;;;;;;12.98;3.42;;;;;;;;;;5028770;28;20087;-75
2024/01/16 05:38:41;;;;;;;7.70;2.97;;;;;;;;;;5017468;28;20037;-76
2024/01/16 05:41:07;;;;;;;4.75;2.80;;;;;;;;;;5029340;28;20042;-75
2024/01/16 05:43:32;;;;;;;9.25;3.35;;;;;;;;;;5030103;28;20392;-75
2024/01/16 05:45:58;;;;;;;5.60;2.85;;;;;;;;;;5011083;28;20128;-75
2024/01/16 05:48:23;;;;;;;10.18;3.05;;;;;;;;;;5014142;28;20045;-75
2024/01/16 05:50:49;;;;;;;10.13;3.97;;;;;;;;;;5029358;28;20018;-75
2024/01/16 05:53:14;;;;;;;8.00;3.60;;;;;;;;;;5017577;28;20433;-75
2024/01/16 05:55:39;;;;;;;9.73;3.47;;;;;;;;;;5005940;28;20071;-75
2024/01/16 05:58:05;;;;;;;10.20;3.75;;;;;;;;;;5028173;28;20129;-75
2024/01/16 06:00:30;;;;;;;9.27;3.53;;;;;;;;;;5028626;28;20075;-75
2024/01/16 06:02:56;;;;;;;6.25;3.20;;;;;;;;;;5009040;28;20041;-75
2024/01/16 06:05:21;;;;;;;11.45;3.25;;;;;;;;;;5028569;28;20029;-75
2024/01/16 06:07:47;;;;;;;9.77;3.63;;;;;;;;;;5010637;28;20096;-75
2024/01/16 06:10:15;;;;;;;6.45;2.85;;;;;;;;;;5011907;28;20465;-75
2024/01/16 06:12:41;;;;;;;6.55;2.90;;;;;;;;;;5007821;28;20061;-75
2024/01/16 06:15:07;;;;;;;6.15;3.33;;;;;;;;;;5008204;28;20116;-75
2024/01/16 06:17:32;;;;;;;10.57;3.60;;;;;;;;;;4990474;28;20492;-75
2024/01/16 06:19:58;;;;;;;8.90;3.63;;;;;;;;;;5007018;28;20045;-73
2024/01/16 06:22:23;;;;;;;8.82;2.58;;;;;;;;;;5025605;28;20311;-74
2024/01/16 06:24:49;;;;;;;10.48;3.88;;;;;;;;;;5031049;28;20037;-74
2024/01/16 06:27:18;;;;;;;7.78;3.70;;;;;;;;;;5038630;28;20668;-74
2024/01/16 06:29:48;;;;;;;6.22;2.85;;;;;;;;;;5046503;28;20031;-74
2024/01/16 06:32:13;;;;;;;9.95;3.28;;;;;;;;;;5031567;28;20046;-74
2024/01/16 06:34:39;;;;;;;10.77;3.63;;;;;;;;;;5027141;28;20032;-75
2024/01/16 06:37:04;;;;;;;9.35;3.67;;;;;;;;;;5011603;28;20058;-75
2024/01/16 06:39:30;;;;;;;9.63;4.22;;;;;;;;;;5026301;28;20033;-75
2024/01/16 06:41:56;;;;;;;12.23;3.30;;;;;;;;;;5010722;28;20025;-74
2024/01/16 06:44:21;;;;;;;15.18;3.75;;;;;;;;;;5028255;28;20025;-75
2024/01/16 06:46:47;;;;;;;13.02;3.17;;;;;;;;;;5010256;28;20035;-76
2024/01/16 06:49:12;;;;;;;16.52;3.70;;;;;;;;;;5010773;28;20065;-75
2024/01/16 06:51:38;;;;;;;19.10;3.42;;;;;;;;;;5028867;28;20049;-75
2024/01/16 06:54:03;;;;;;;4.50;3.08;;;;;;;;;;5028563;28;20044;-75
2024/01/16 06:56:29;;;;;;;8.88;3.47;;;;;;;;;;5011331;28;20398;-75
2024/01/16 06:58:54;;;;;;;8.23;3.25;;;;;;;;;;5007409;28;20065;-75
2024/01/16 07:01:20;;;;;;;13.70;4.32;;;;;;;;;;5024506;28;20418;-75
2024/01/16 07:03:45;;;;;;;8.40;4.28;;;;;;;;;;5010301;28;20060;-75
2024/01/16 07:06:11;;;;;;;6.35;3.75;;;;;;;;;;5028845;28;20033;-76
2024/01/16 07:08:37;;;;;;;6.20;3.15;;;;;;;;;;5009154;28;20028;-75
2024/01/16 07:11:02;;;;;;;10.27;4.18;;;;;;;;;;5028187;28;20124;-75
2024/01/16 07:13:28;;;;;;;6.72;3.38;;;;;;;;;;5011067;28;20515;-76
2024/01/16 07:15:53;;;;;;;6.85;3.80;;;;;;;;;;5010719;28;20608;-76
2024/01/16 07:18:19;;;;;;;7.60;2.92;;;;;;;;;;5010774;28;20044;-75
2024/01/16 07:20:45;;;;;;;10.70;4.10;;;;;;;;;;5011048;28;20026;-75
2024/01/16 07:23:11;;;;;;;16.00;3.67;;;;;;;;;;5011263;28;20044;-75
2024/01/16 07:25:36;;;;;;;7.22;3.30;;;;;;;;;;5017839;28;20041;-75
2024/01/16 07:28:02;;;;;;;7.20;3.40;;;;;;;;;;5036340;28;20076;-75
2024/01/16 07:30:27;;;;;;;7.05;3.35;;;;;;;;;;5029746;28;20038;-75
2024/01/16 07:32:53;;;;;;;6.45;3.25;;;;;;;;;;5019801;28;20076;-75
2024/01/16 07:35:19;;;;;;;8.38;3.78;;;;;;;;;;5025510;28;20021;-75
2024/01/16 07:37:44;;;;;;;5.25;3.10;;;;;;;;;;5009982;28;20053;-75
2024/01/16 07:40:10;;;;;;;10.02;3.55;;;;;;;;;;5018089;28;20427;-76
2024/01/16 07:42:36;;;;;;;8.55;3.35;;;;;;;;;;5020342;28;20893;-75
2024/01/16 07:45:04;;;;;;;6.72;3.28;;;;;;;;;;5002734;28;20021;-75
2024/01/16 07:47:31;;;;;;;9.48;2.83;;;;;;;;;;5013366;28;20113;-75
2024/01/16 07:49:57;;;;;;;9.75;3.67;;;;;;;;;;5025741;28;20060;-75
2024/01/16 07:52:22;;;;;;;7.40;3.92;;;;;;;;;;5033177;28;20069;-76
2024/01/16 07:54:48;;;;;;;10.20;4.00;;;;;;;;;;5033434;28;20029;-75
2024/01/16 07:57:14;;;;;;;6.18;3.67;;;;;;;;;;5051682;28;20030;-76
2024/01/16 07:59:43;;;;;;;12.27;4.35;;;;;;;;;;5034330;28;20028;-76
2024/01/16 08:02:09;;;;;;;13.80;4.00;;;;;;;;;;5024996;28;20037;-75
2024/01/16 08:04:34;;;;;;;9.18;3.80;;;;;;;;;;5028569;28;20068;-75
2024/01/16 08:07:00;;;;;;;24.10;3.22;;;;;;;;;;5029300;28;20065;-75
2024/01/16 08:09:25;;;;;;;10.50;3.90;;;;;;;;;;5011197;28;20025;-75
2024/01/16 08:11:51;;;;;;;16.13;4.55;;;;;;;;;;5028787;28;20120;-76
2024/01/16 08:14:16;;;;;;;6.63;3.45;;;;;;;;;;5031025;28;20075;-75
2024/01/16 08:16:41;;;;;;;8.75;3.40;;;;;;;;;;5046792;28;20052;-75
2024/01/16 08:19:07;;;;;;;6.13;3.50;;;;;;;;;;5048383;28;20033;-76
2024/01/16 08:21:33;;;;;;;5.80;3.00;;;;;;;;;;5048350;28;20037;-75
2024/01/16 08:23:58;;;;;;;7.80;3.55;;;;;;;;;;5048048;28;20033;-75
2024/01/16 08:26:24;;;;;;;7.03;3.42;;;;;;;;;;5007286;28;21036;-75
2024/01/16 08:28:50;;;;;;;8.32;3.80;;;;;;;;;;4991259;28;20120;-75
2024/01/16 08:31:19;;;;;;;6.75;3.15;;;;;;;;;;5010389;28;21223;-76
2024/01/16 08:33:45;;;;;;;7.00;3.90;;;;;;;;;;5028492;28;20153;-76
2024/01/16 08:36:10;;;;;;;11.00;5.18;;;;;;;;;;5023215;28;20176;-75
2024/01/16 08:38:35;;;;;;;10.63;5.28;;;;;;;;;;5008429;28;20091;-75
2024/01/16 08:41:01;;;;;;;7.65;3.50;;;;;;;;;;5005404;28;20148;-75
2024/01/16 08:43:27;;;;;;;29.02;4.25;;;;;;;;;;5039092;28;20037;-74
2024/01/16 08:45:52;;;;;;;12.50;3.88;;;;;;;;;;5020704;28;20049;-74
2024/01/16 08:48:17;;;;;;;7.57;3.20;;;;;;;;;;5032009;28;20037;-73
2024/01/16 08:50:44;;;;;;;7.57;3.65;;;;;;;;;;5041222;28;20116;-75
2024/01/16 08:53:09;;;;;;;9.45;3.72;;;;;;;;;;5048441;28;20052;-76
2024/01/16 08:55:35;;;;;;;6.80;3.53;;;;;;;;;;5061384;28;20054;-75
2024/01/16 08:58:00;;;;;;;8.88;3.75;;;;;;;;;;5037464;28;20030;-74
2024/01/16 09:00:27;;;;;;;8.15;3.92;;;;;;;;;;5036960;28;20037;-74
2024/01/16 09:02:52;;;;;;;7.20;3.78;;;;;;;;;;5011732;28;20129;-75
2024/01/16 09:05:18;;;;;;;10.00;3.65;;;;;;;;;;5022378;28;20021;-75
2024/01/16 09:07:43;;;;;;;10.00;3.65;;;;;;;;;;5022089;28;20577;-75
2024/01/16 09:10:09;;;;;;;7.50;3.50;;;;;;;;;;5022938;28;20029;-75
2024/01/16 09:12:34;;;;;;;7.07;3.40;;;;;;;;;;4993568;28;20045;-75
2024/01/16 09:14:59;;;;;;;11.30;3.25;;;;;;;;;;5023454;28;20029;-75
2024/01/16 09:17:28;;;;;;;6.78;3.30;;;;;;;;;;5006853;28;20021;-75
2024/01/16 09:19:53;;;;;;;6.13;2.83;;;;;;;;;;5009776;28;20113;-75
2024/01/16 09:22:18;;;;;;;6.10;3.10;;;;;;;;;;5009218;28;20112;-75
2024/01/16 09:24:44;;;;;;;8.80;3.28;;;;;;;;;;5009382;28;20045;-75
2024/01/16 09:27:09;;;;;;;6.72;3.28;;;;;;;;;;5025070;28;20121;-75
2024/01/16 09:29:36;;;;;;;7.38;3.53;;;;;;;;;;5009748;28;20072;-75
2024/01/16 09:32:02;;;;;;;10.52;3.55;;;;;;;;;;5014708;28;20030;-75
2024/01/16 09:34:28;;;;;;;10.73;3.72;;;;;;;;;;4997363;28;20097;-75
2024/01/16 09:36:54;;;;;;;13.68;3.28;;;;;;;;;;5003637;28;20042;-74
2024/01/16 09:39:19;;;;;;;7.20;3.10;;;;;;;;;;5011297;28;20113;-75
2024/01/16 09:41:45;;;;;;;7.80;3.33;;;;;;;;;;5010013;28;20056;-75
2024/01/16 09:44:10;;;;;;;12.18;3.38;;;;;;;;;;5022863;28;20415;-75
2024/01/16 09:46:38;;;;;;;8.30;3.20;;;;;;;;;;5009016;28;20803;-75
2024/01/16 09:49:04;;;;;;;12.48;3.35;;;;;;;;;;5026469;28;20038;-75
2024/01/16 09:51:30;;;;;;;12.35;3.28;;;;;;;;;;5027036;28;20450;-76
2024/01/16 09:53:55;;;;;;;8.20;3.33;;;;;;;;;;5026547;28;20031;-75
2024/01/16 09:56:23;;;;;;;8.30;3.17;;;;;;;;;;5027060;28;20727;-75
2024/01/16 09:58:53;;;;;;;10.10;4.18;;;;;;;;;;5009544;28;20037;-75
2024/01/16 10:01:20;;;;;;;12.43;3.78;;;;;;;;;;5011174;28;20095;-75
2024/01/16 10:03:45;;;;;;;9.95;3.97;;;;;;;;;;5027115;28;20621;-73
2024/01/16 10:06:12;;;;;;;8.85;3.20;;;;;;;;;;5027414;28;20042;-76
2024/01/16 10:08:37;;;;;;;8.95;3.03;;;;;;;;;;5028551;28;20021;-76
2024/01/16 10:11:03;;;;;;;9.52;3.58;;;;;;;;;;5028836;28;20041;-75
2024/01/16 10:13:29;;;;;;;5.72;2.65;;;;;;;;;;5028850;28;20044;-75
2024/01/16 10:15:55;;;;;;;8.10;3.65;;;;;;;;;;5016468;28;20045;-76
2024/01/16 10:18:24;;;;;;;11.23;4.32;;;;;;;;;;5009837;28;20065;-75
2024/01/16 10:20:50;;;;;;;8.95;3.60;;;;;;;;;;5011971;28;20018;-75
2024/01/16 10:23:26;;;;;;;12.82;3.60;;;;;;;;;;5010658;28;20087;-75
2024/01/16 10:26:18;;;;;;;7.72;3.70;;;;;;;;;;4996413;28;20040;-75
2024/01/16 10:28:44;;;;;;;6.43;2.72;;;;;;;;;;5023654;28;20040;-75
2024/01/16 10:31:12;;;;;;;11.48;3.42;;;;;;;;;;5021303;28;20041;-75
2024/01/16 10:33:39;;;;;;;5.10;2.80;;;;;;;;;;5008979;28;20044;-75
2024/01/16 10:36:16;;;;;;;8.43;3.25;;;;;;;;;;5009909;28;20025;-75
2024/01/16 10:38:43;;;;;;;7.07;3.08;;;;;;;;;;5013307;28;20037;-76
2024/01/16 10:41:13;;;;;;;7.75;3.35;;;;;;;;;;5006167;28;20045;-75
2024/01/16 10:43:39;;;;;;;8.88;3.22;;;;;;;;;;4989129;28;20038;-75
2024/01/16 10:46:16;;;;;;;9.80;3.42;;;;;;;;;;5006754;28;20117;-75
2024/01/16 10:48:43;;;;;;;9.60;2.88;;;;;;;;;;4999321;28;20071;-75
2024/01/16 10:51:15;;;;;;;9.35;3.40;;;;;;;;;;5016198;28;20032;-76
2024/01/16 10:53:44;;;;;;;11.35;3.25;;;;;;;;;;5028145;28;20037;-75
2024/01/16 10:56:13;;;;;;;8.68;3.67;;;;;;;;;;5007917;28;20081;-74
2024/01/16 10:58:41;;;;;;;10.07;3.97;;;;;;;;;;5007518;28;20033;-75
2024/01/16 11:01:10;;;;;;;11.25;3.80;;;;;;;;;;5026279;28;20040;-75
2024/01/16 11:03:50;;;;;;;9.48;3.13;;;;;;;;;;5016901;28;20026;-75
2024/01/16 11:06:17;;;;;;;9.30;3.60;;;;;;;;;;4987830;28;20032;-75
2024/01/16 11:08:47;;;;;;;7.80;3.40;;;;;;;;;;5005937;28;20026;-76
2024/01/16 11:11:13;;;;;;;7.63;3.55;;;;;;;;;;5005824;28;20037;-75
2024/01/16 11:13:40;;;;;;;9.25;3.58;;;;;;;;;;4987893;28;20069;-75
2024/01/16 11:16:07;;;;;;;8.23;3.65;;;;;;;;;;5005402;28;20072;-75
2024/01/16 11:18:34;;;;;;;7.32;3.03;;;;;;;;;;4988411;28;20417;-75
2024/01/16 11:21:02;;;;;;;7.85;3.50;;;;;;;;;;4987127;28;20018;-75
2024/01/16 11:23:28;;;;;;;12.77;4.20;;;;;;;;;;5001494;28;20094;-74
2024/01/16 11:25:54;;;;;;;10.65;3.95;;;;;;;;;;5017783;28;20112;-73
2024/01/16 11:28:19;;;;;;;10.45;4.38;;;;;;;;;;5024350;28;20063;-74
2024/01/16 11:30:45;;;;;;;8.65;3.83;;;;;;;;;;5026381;28;20046;-75
2024/01/16 11:33:35;;;;;;;6.57;3.50;;;;;;;;;;5029334;28;20054;-75
2024/01/16 11:36:01;;;;;;;8.02;3.58;;;;;;;;;;5008481;28;20016;-77
2024/01/16 11:38:27;;;;;;;9.27;3.67;;;;;;;;;;4976498;28;20049;-75
2024/01/16 11:40:56;;;;;;;8.85;3.78;;;;;;;;;;5004089;28;20470;-75
2024/01/16 11:43:36;;;;;;;18.50;4.88;;;;;;;;;;5004618;28;20037;-76
2024/01/16 11:46:04;;;;;;;11.82;3.88;;;;;;;;;;5005809;28;20140;-75
2024/01/16 11:48:29;;;;;;;7.43;4.03;;;;;;;;;;4988765;28;20030;-75
2024/01/16 11:50:54;;;;;;;11.18;4.60;;;;;;;;;;5006904;28;20026;-75
2024/01/16 11:53:33;;;;;;;9.52;3.92;;;;;;;;;;4987823;28;20037;-75
2024/01/16 11:56:11;;;;;;;8.60;3.42;;;;;;;;;;4987772;28;20084;-75
2024/01/16 11:59:32;;;;;;;7.25;2.85;;;;;;;;;;4987757;28;20069;-75
2024/01/16 12:01:59;;;;;;;8.85;3.90;;;;;;;;;;4992060;28;20100;-75
2024/01/16 12:04:24;;;;;;;7.53;3.80;;;;;;;;;;5006259;28;20104;-74
2024/01/16 12:07:00;;;;;;;6.68;3.70;;;;;;;;;;4987992;28;20038;-76
2024/01/16 12:09:27;;;;;;;8.80;4.32;;;;;;;;;;4987735;28;20034;-76
2024/01/16 12:11:58;;;;;;;14.63;3.80;;;;;;;;;;5005860;28;20061;-76
2024/01/16 12:14:23;;;;;;;9.30;3.47;;;;;;;;;;4988820;28;20461;-76
2024/01/16 12:16:49;;;;;;;8.68;4.43;;;;;;;;;;4987487;28;20037;-75
2024/01/16 12:19:14;;;;;;;12.48;4.25;;;;;;;;;;4999575;28;20340;-75
2024/01/16 12:21:41;;;;;;;31.73;14.52;;;;;;;;;;4973452;28;20037;-75
2024/01/16 12:24:07;;;;;;;51.80;21.10;;;;;;;;;;4981576;28;20030;-76
2024/01/16 12:26:32;;;;;;;58.50;22.25;;;;;;;;;;5006823;28;20069;-76
2024/01/16 12:28:58;;;;;;;19.73;8.70;;;;;;;;;;4998369;28;20038;-76
2024/01/16 12:31:24;;;;;;;6.05;3.55;;;;;;;;;;4975874;28;20096;-76
2024/01/16 12:33:51;;;;;;;14.00;5.93;;;;;;;;;;4973171;28;20046;-76
2024/01/16 12:36:17;;;;;;;20.42;11.25;;;;;;;;;;4977918;28;20035;-76
2024/01/16 12:38:42;;;;;;;14.52;6.25;;;;;;;;;;5005572;28;20045;-76
2024/01/16 12:41:10;;;;;;;9.10;3.85;;;;;;;;;;5011185;28;20062;-76
2024/01/16 12:43:36;;;;;;;11.00;5.40;;;;;;;;;;4994292;28;20038;-75
2024/01/16 12:46:02;;;;;;;7.38;4.30;;;;;;;;;;5013525;28;20067;-76
2024/01/16 12:48:28;;;;;;;13.32;5.85;;;;;;;;;;5001172;28;20038;-75
2024/01/16 12:51:04;;;;;;;34.28;16.02;;;;;;;;;;5011510;28;20036;-76
2024/01/16 12:53:31;;;;;;;11.65;5.55;;;;;;;;;;5001090;28;20492;-75
2024/01/16 12:56:04;;;;;;;17.65;8.80;;;;;;;;;;4988265;28;20041;-75
2024/01/16 12:58:34;;;;;;;6.65;3.60;;;;;;;;;;5001570;28;20030;-75
2024/01/16 13:01:26;;;;;;;12.38;4.80;;;;;;;;;;4981425;28;20038;-76
2024/01/16 13:03:52;;;;;;;11.13;4.47;;;;;;;;;;5008768;28;20054;-75
2024/01/16 13:06:19;;;;;;;11.52;5.13;;;;;;;;;;5007909;28;20061;-76
2024/01/16 13:08:47;;;;;;;115.72;43.42;;;;;;;;;;5007245;28;20022;-75
2024/01/16 13:11:16;;;;;;;10.18;4.53;;;;;;;;;;5008607;28;20091;-76
2024/01/16 13:13:41;;;;;;;26.67;9.40;;;;;;;;;;5009001;28;20037;-75
2024/01/16 13:16:07;;;;;;;8.23;3.75;;;;;;;;;;5008040;28;20069;-75
2024/01/16 13:18:33;;;;;;;33.67;13.85;;;;;;;;;;5027060;28;20048;-75
2024/01/16 13:20:59;;;;;;;9.23;4.38;;;;;;;;;;5026803;28;20082;-76
2024/01/16 13:23:25;;;;;;;10.23;4.32;;;;;;;;;;5023389;28;20034;-76
2024/01/16 13:25:51;;;;;;;16.00;6.07;;;;;;;;;;5024363;28;20106;-75
2024/01/16 13:28:18;;;;;;;8.07;4.55;;;;;;;;;;5007623;28;20071;-77
2024/01/16 13:30:44;;;;;;;24.13;9.73;;;;;;;;;;5006647;28;20045;-76
2024/01/16 13:33:10;;;;;;;7.25;4.30;;;;;;;;;;5002573;28;20030;-77
2024/01/16 13:35:39;;;;;;;9.68;4.60;;;;;;;;;;5027899;28;20032;-76
2024/01/16 13:38:05;;;;;;;9.48;4.18;;;;;;;;;;5007286;28;20048;-76
2024/01/16 13:40:32;;;;;;;6.70;3.03;;;;;;;;;;5027514;28;20562;-77
2024/01/16 13:42:57;;;;;;;6.20;3.58;;;;;;;;;;5026374;28;20037;-77
2024/01/16 13:45:22;;;;;;;7.30;3.38;;;;;;;;;;5009920;28;20060;-76
2024/01/16 13:47:48;;;;;;;7.13;3.50;;;;;;;;;;5027399;28;20040;-76
2024/01/16 13:50:14;;;;;;;10.48;3.05;;;;;;;;;;5027312;28;20037;-76
2024/01/16 13:52:40;;;;;;;9.65;3.25;;;;;;;;;;5027209;28;20041;-75
2024/01/16 13:55:09;;;;;;;10.68;3.70;;;;;;;;;;5009537;28;20128;-75
2024/01/16 13:57:35;;;;;;;7.30;3.25;;;;;;;;;;5027688;28;20028;-76
2024/01/16 14:00:03;;;;;;;7.35;3.65;;;;;;;;;;5021669;28;20021;-76
2024/01/16 14:02:28;;;;;;;7.65;3.50;;;;;;;;;;5011876;28;20025;-76
2024/01/16 14:04:54;;;;;;;4.93;3.00;;;;;;;;;;5036291;28;20044;-75
2024/01/16 14:07:19;;;;;;;8.57;3.38;;;;;;;;;;5020157;28;20045;-75
2024/01/16 14:09:44;;;;;;;6.07;2.90;;;;;;;;;;5012547;28;20041;-75
2024/01/16 14:12:11;;;;;;;6.07;2.75;;;;;;;;;;5027638;28;20505;-75
2024/01/16 14:14:37;;;;;;;6.22;2.92;;;;;;;;;;5011177;28;20093;-76
2024/01/16 14:17:03;;;;;;;7.60;2.83;;;;;;;;;;5029712;28;20107;-76
2024/01/16 14:19:30;;;;;;;5.25;3.00;;;;;;;;;;5029462;28;20446;-76
2024/01/16 14:21:55;;;;;;;6.93;2.42;;;;;;;;;;4976961;28;20058;-76
2024/01/16 14:24:21;;;;;;;6.00;2.80;;;;;;;;;;4990764;28;20057;-75
2024/01/16 14:26:47;;;;;;;4.25;2.45;;;;;;;;;;5010439;28;20026;-76
2024/01/16 14:29:13;;;;;;;7.75;3.25;;;;;;;;;;4991934;28;20089;-75
2024/01/16 14:31:38;;;;;;;8.50;3.17;;;;;;;;;;4991932;28;20129;-76
2024/01/16 14:34:04;;;;;;;10.80;2.95;;;;;;;;;;5009809;28;20066;-76